sensor_id;sensor_type;location;lat;lon;timestamp;P1;durP1;ratioP1;P2;durP2;ratioP2
8564;SDS011;4320;51.498;6.556;2022-12-07T00:00:38;16.80;;;12.23;;
8564;SDS011;4320;51.498;6.556;2022-12-07T00:03:04;17.13;;;12.60;;
8564;SDS011;4320;51.498;6.556;2022-12-07T00:05:29;15.43;;;11.60;;
8564;SDS011;4320;51.498;6.556;2022-12-07T00:07:55;15.73;;;12.97;;
8564;SDS011;4320;51.498;6.556;2022-12-07T00:10:21;18.73;;;13.40;;
8564;SDS011;4320;51.498;6.556;2022-12-07T00:12:46;17.67;;;13.17;;
8564;SDS011;4320;51.498;6.556;2022-12-07T00:15:12;16.70;;;13.30;;
8564;SDS011;4320;51.498;6.556;2022-12-07T00:17:37;19.40;;;13.70;;
8564;SDS011;4320;51.498;6.556;2022-12-07T00:20:03;19.63;;;13.80;;
8564;SDS011;4320;51.498;6.556;2022-12-07T00:22:29;17.80;;;13.43;;
8564;SDS011;4320;51.498;6.556;2022-12-07T00:24:55;20.00;;;13.80;;
8564;SDS011;4320;51.498;6.556;2022-12-07T00:27:21;19.77;;;14.70;;
8564;SDS011;4320;51.498;6.556;2022-12-07T00:29:46;20.97;;;14.80;;
8564;SDS011;4320;51.498;6.556;2022-12-07T00:32:12;24.87;;;14.80;;
8564;SDS011;4320;51.498;6.556;2022-12-07T00:34:37;19.67;;;13.83;;
8564;SDS011;4320;51.498;6.556;2022-12-07T00:37:03;23.13;;;15.23;;
8564;SDS011;4320;51.498;6.556;2022-12-07T00:39:28;17.93;;;13.70;;
8564;SDS011;4320;51.498;6.556;2022-12-07T00:41:54;20.37;;;14.23;;
8564;SDS011;4320;51.498;6.556;2022-12-07T00:44:20;21.83;;;15.23;;
8564;SDS011;4320;51.498;6.556;2022-12-07T00:46:45;23.10;;;14.03;;
8564;SDS011;4320;51.498;6.556;2022-12-07T00:49:11;22.57;;;14.53;;
8564;SDS011;4320;51.498;6.556;2022-12-07T00:51:37;19.03;;;14.53;;
8564;SDS011;4320;51.498;6.556;2022-12-07T00:54:03;19.43;;;14.93;;
8564;SDS011;4320;51.498;6.556;2022-12-07T00:56:29;19.03;;;13.77;;
8564;SDS011;4320;51.498;6.556;2022-12-07T01:01:21;22.77;;;15.03;;
8564;SDS011;4320;51.498;6.556;2022-12-07T01:03:47;18.93;;;14.27;;
8564;SDS011;4320;51.498;6.556;2022-12-07T01:06:16;19.67;;;14.37;;
8564;SDS011;4320;51.498;6.556;2022-12-07T01:08:44;23.43;;;14.53;;
8564;SDS011;4320;51.498;6.556;2022-12-07T01:11:11;20.03;;;14.10;;
8564;SDS011;4320;51.498;6.556;2022-12-07T01:13:39;19.33;;;14.60;;
8564;SDS011;4320;51.498;6.556;2022-12-07T01:16:06;20.37;;;14.63;;
8564;SDS011;4320;51.498;6.556;2022-12-07T01:18:33;23.03;;;15.30;;
8564;SDS011;4320;51.498;6.556;2022-12-07T01:23:34;18.97;;;14.87;;
8564;SDS011;4320;51.498;6.556;2022-12-07T01:26:02;22.03;;;15.60;;
8564;SDS011;4320;51.498;6.556;2022-12-07T01:28:29;20.37;;;14.30;;
8564;SDS011;4320;51.498;6.556;2022-12-07T01:30:56;21.67;;;14.07;;
8564;SDS011;4320;51.498;6.556;2022-12-07T01:33:43;18.67;;;14.37;;
8564;SDS011;4320;51.498;6.556;2022-12-07T01:36:20;18.53;;;14.67;;
8564;SDS011;4320;51.498;6.556;2022-12-07T01:38:48;22.87;;;14.63;;
8564;SDS011;4320;51.498;6.556;2022-12-07T01:41:18;21.87;;;13.90;;
8564;SDS011;4320;51.498;6.556;2022-12-07T01:47:05;21.13;;;15.27;;
8564;SDS011;4320;51.498;6.556;2022-12-07T01:54:42;20.60;;;13.73;;
8564;SDS011;4320;51.498;6.556;2022-12-07T01:57:09;21.23;;;14.10;;
8564;SDS011;4320;51.498;6.556;2022-12-07T01:59:36;20.23;;;14.17;;
8564;SDS011;4320;51.498;6.556;2022-12-07T02:02:04;21.70;;;15.57;;
8564;SDS011;4320;51.498;6.556;2022-12-07T02:04:36;20.67;;;15.00;;
8564;SDS011;4320;51.498;6.556;2022-12-07T02:07:02;23.87;;;16.00;;
8564;SDS011;4320;51.498;6.556;2022-12-07T02:09:29;23.80;;;15.47;;
8564;SDS011;4320;51.498;6.556;2022-12-07T02:11:55;22.80;;;16.20;;
8564;SDS011;4320;51.498;6.556;2022-12-07T02:14:21;20.07;;;14.77;;
8564;SDS011;4320;51.498;6.556;2022-12-07T02:16:51;24.57;;;16.03;;
8564;SDS011;4320;51.498;6.556;2022-12-07T02:30:28;23.23;;;16.03;;
8564;SDS011;4320;51.498;6.556;2022-12-07T02:33:05;22.47;;;15.37;;
8564;SDS011;4320;51.498;6.556;2022-12-07T02:35:46;27.47;;;15.37;;
8564;SDS011;4320;51.498;6.556;2022-12-07T02:40:48;24.53;;;15.97;;
8564;SDS011;4320;51.498;6.556;2022-12-07T02:43:20;25.97;;;15.63;;
8564;SDS011;4320;51.498;6.556;2022-12-07T02:45:55;22.33;;;14.73;;
8564;SDS011;4320;51.498;6.556;2022-12-07T02:48:26;25.30;;;15.27;;
8564;SDS011;4320;51.498;6.556;2022-12-07T02:50:53;21.53;;;15.60;;
8564;SDS011;4320;51.498;6.556;2022-12-07T02:56:03;23.60;;;15.97;;
8564;SDS011;4320;51.498;6.556;2022-12-07T03:01:42;24.52;;;15.45;;
8564;SDS011;4320;51.498;6.556;2022-12-07T03:10:28;25.27;;;15.87;;
8564;SDS011;4320;51.498;6.556;2022-12-07T03:18:39;23.97;;;16.33;;
8564;SDS011;4320;51.498;6.556;2022-12-07T03:21:16;26.50;;;16.17;;
8564;SDS011;4320;51.498;6.556;2022-12-07T03:23:46;24.23;;;15.37;;
8564;SDS011;4320;51.498;6.556;2022-12-07T03:26:16;26.47;;;15.73;;
8564;SDS011;4320;51.498;6.556;2022-12-07T03:28:46;24.80;;;15.70;;
8564;SDS011;4320;51.498;6.556;2022-12-07T03:31:23;26.90;;;16.43;;
8564;SDS011;4320;51.498;6.556;2022-12-07T03:34:02;24.03;;;16.07;;
8564;SDS011;4320;51.498;6.556;2022-12-07T03:39:45;28.70;;;17.23;;
8564;SDS011;4320;51.498;6.556;2022-12-07T03:41:55;28.03;;;17.03;;
8564;SDS011;4320;51.498;6.556;2022-12-07T03:44:21;26.87;;;16.50;;
8564;SDS011;4320;51.498;6.556;2022-12-07T03:54:36;27.27;;;16.53;;
8564;SDS011;4320;51.498;6.556;2022-12-07T03:57:08;29.27;;;16.03;;
8564;SDS011;4320;51.498;6.556;2022-12-07T03:59:37;28.30;;;16.47;;
8564;SDS011;4320;51.498;6.556;2022-12-07T04:02:05;25.07;;;16.63;;
8564;SDS011;4320;51.498;6.556;2022-12-07T04:04:32;26.43;;;16.13;;
8564;SDS011;4320;51.498;6.556;2022-12-07T04:06:59;29.10;;;16.37;;
8564;SDS011;4320;51.498;6.556;2022-12-07T04:09:24;25.13;;;15.67;;
8564;SDS011;4320;51.498;6.556;2022-12-07T04:11:51;25.73;;;15.17;;
8564;SDS011;4320;51.498;6.556;2022-12-07T04:14:16;21.60;;;15.70;;
8564;SDS011;4320;51.498;6.556;2022-12-07T04:16:46;24.43;;;15.57;;
8564;SDS011;4320;51.498;6.556;2022-12-07T04:19:17;24.50;;;16.03;;
8564;SDS011;4320;51.498;6.556;2022-12-07T04:21:44;25.70;;;15.23;;
8564;SDS011;4320;51.498;6.556;2022-12-07T04:24:11;27.20;;;16.57;;
8564;SDS011;4320;51.498;6.556;2022-12-07T04:26:38;20.93;;;14.23;;
8564;SDS011;4320;51.498;6.556;2022-12-07T04:29:04;24.90;;;14.87;;
8564;SDS011;4320;51.498;6.556;2022-12-07T04:31:29;20.87;;;14.13;;
8564;SDS011;4320;51.498;6.556;2022-12-07T04:33:55;26.43;;;14.57;;
8564;SDS011;4320;51.498;6.556;2022-12-07T04:36:21;26.43;;;16.77;;
8564;SDS011;4320;51.498;6.556;2022-12-07T04:38:46;27.20;;;14.90;;
8564;SDS011;4320;51.498;6.556;2022-12-07T04:41:12;21.87;;;15.03;;
8564;SDS011;4320;51.498;6.556;2022-12-07T04:43:38;25.20;;;14.67;;
8564;SDS011;4320;51.498;6.556;2022-12-07T04:46:04;25.80;;;14.77;;
8564;SDS011;4320;51.498;6.556;2022-12-07T04:48:30;23.43;;;15.57;;
8564;SDS011;4320;51.498;6.556;2022-12-07T04:50:55;22.47;;;15.00;;
8564;SDS011;4320;51.498;6.556;2022-12-07T04:53:21;22.77;;;14.10;;
8564;SDS011;4320;51.498;6.556;2022-12-07T04:55:47;22.90;;;13.97;;
8564;SDS011;4320;51.498;6.556;2022-12-07T04:58:13;25.67;;;14.20;;
8564;SDS011;4320;51.498;6.556;2022-12-07T05:00:39;21.63;;;14.10;;
8564;SDS011;4320;51.498;6.556;2022-12-07T05:03:04;26.67;;;14.30;;
8564;SDS011;4320;51.498;6.556;2022-12-07T05:05:30;22.57;;;14.60;;
8564;SDS011;4320;51.498;6.556;2022-12-07T05:07:56;21.30;;;14.07;;
8564;SDS011;4320;51.498;6.556;2022-12-07T05:10:22;26.80;;;13.63;;
8564;SDS011;4320;51.498;6.556;2022-12-07T05:12:47;19.77;;;12.63;;
8564;SDS011;4320;51.498;6.556;2022-12-07T05:15:14;25.93;;;12.97;;
8564;SDS011;4320;51.498;6.556;2022-12-07T05:17:40;19.47;;;13.10;;
8564;SDS011;4320;51.498;6.556;2022-12-07T05:20:07;22.07;;;13.27;;
8564;SDS011;4320;51.498;6.556;2022-12-07T05:22:33;19.20;;;12.43;;
8564;SDS011;4320;51.498;6.556;2022-12-07T05:24:59;19.47;;;12.57;;
8564;SDS011;4320;51.498;6.556;2022-12-07T05:27:25;21.07;;;12.83;;
8564;SDS011;4320;51.498;6.556;2022-12-07T05:29:50;18.60;;;12.90;;
8564;SDS011;4320;51.498;6.556;2022-12-07T05:32:16;18.77;;;12.23;;
8564;SDS011;4320;51.498;6.556;2022-12-07T05:34:42;22.53;;;12.90;;
8564;SDS011;4320;51.498;6.556;2022-12-07T05:37:08;19.67;;;12.87;;
8564;SDS011;4320;51.498;6.556;2022-12-07T05:39:33;18.20;;;11.70;;
8564;SDS011;4320;51.498;6.556;2022-12-07T05:41:59;17.23;;;12.07;;
8564;SDS011;4320;51.498;6.556;2022-12-07T05:44:37;24.00;;;13.80;;
8564;SDS011;4320;51.498;6.556;2022-12-07T05:47:07;18.60;;;12.97;;
8564;SDS011;4320;51.498;6.556;2022-12-07T05:49:33;17.10;;;12.40;;
8564;SDS011;4320;51.498;6.556;2022-12-07T05:51:58;18.70;;;11.50;;
8564;SDS011;4320;51.498;6.556;2022-12-07T05:54:24;21.70;;;11.87;;
8564;SDS011;4320;51.498;6.556;2022-12-07T05:56:50;20.50;;;12.60;;
8564;SDS011;4320;51.498;6.556;2022-12-07T05:59:16;19.67;;;11.60;;
8564;SDS011;4320;51.498;6.556;2022-12-07T06:01:47;18.03;;;10.70;;
8564;SDS011;4320;51.498;6.556;2022-12-07T06:04:14;19.57;;;12.20;;
8564;SDS011;4320;51.498;6.556;2022-12-07T06:06:40;19.80;;;11.53;;
8564;SDS011;4320;51.498;6.556;2022-12-07T06:09:05;18.20;;;12.53;;
8564;SDS011;4320;51.498;6.556;2022-12-07T06:11:31;23.70;;;12.90;;
8564;SDS011;4320;51.498;6.556;2022-12-07T06:14:15;21.37;;;12.37;;
8564;SDS011;4320;51.498;6.556;2022-12-07T06:16:41;20.60;;;11.53;;
8564;SDS011;4320;51.498;6.556;2022-12-07T06:19:07;18.10;;;11.87;;
8564;SDS011;4320;51.498;6.556;2022-12-07T06:21:32;19.40;;;11.80;;
8564;SDS011;4320;51.498;6.556;2022-12-07T06:23:58;19.03;;;11.97;;
8564;SDS011;4320;51.498;6.556;2022-12-07T06:26:24;16.47;;;11.80;;
8564;SDS011;4320;51.498;6.556;2022-12-07T06:28:49;17.17;;;10.93;;
8564;SDS011;4320;51.498;6.556;2022-12-07T06:31:15;15.93;;;11.07;;
8564;SDS011;4320;51.498;6.556;2022-12-07T06:33:41;16.27;;;11.27;;
8564;SDS011;4320;51.498;6.556;2022-12-07T06:36:07;17.87;;;11.60;;
8564;SDS011;4320;51.498;6.556;2022-12-07T06:38:33;17.60;;;11.80;;
8564;SDS011;4320;51.498;6.556;2022-12-07T06:40:58;17.10;;;10.83;;
8564;SDS011;4320;51.498;6.556;2022-12-07T06:43:24;18.37;;;11.73;;
8564;SDS011;4320;51.498;6.556;2022-12-07T06:45:50;16.03;;;10.40;;
8564;SDS011;4320;51.498;6.556;2022-12-07T06:48:15;19.43;;;10.93;;
8564;SDS011;4320;51.498;6.556;2022-12-07T06:50:43;15.20;;;10.90;;
8564;SDS011;4320;51.498;6.556;2022-12-07T06:53:10;15.50;;;10.13;;
8564;SDS011;4320;51.498;6.556;2022-12-07T06:55:35;15.87;;;10.13;;
8564;SDS011;4320;51.498;6.556;2022-12-07T06:58:01;18.90;;;10.83;;
8564;SDS011;4320;51.498;6.556;2022-12-07T07:00:27;16.53;;;9.80;;
8564;SDS011;4320;51.498;6.556;2022-12-07T07:02:53;15.23;;;10.37;;
8564;SDS011;4320;51.498;6.556;2022-12-07T07:05:19;17.67;;;9.90;;
8564;SDS011;4320;51.498;6.556;2022-12-07T07:07:47;14.40;;;9.80;;
8564;SDS011;4320;51.498;6.556;2022-12-07T07:10:13;18.33;;;10.60;;
8564;SDS011;4320;51.498;6.556;2022-12-07T07:12:39;18.20;;;10.90;;
8564;SDS011;4320;51.498;6.556;2022-12-07T07:15:04;14.87;;;10.00;;
8564;SDS011;4320;51.498;6.556;2022-12-07T07:17:30;16.30;;;10.43;;
8564;SDS011;4320;51.498;6.556;2022-12-07T07:19:56;13.77;;;9.90;;
8564;SDS011;4320;51.498;6.556;2022-12-07T07:22:22;15.50;;;9.30;;
8564;SDS011;4320;51.498;6.556;2022-12-07T07:24:47;14.73;;;9.47;;
8564;SDS011;4320;51.498;6.556;2022-12-07T07:27:13;15.90;;;10.03;;
8564;SDS011;4320;51.498;6.556;2022-12-07T07:29:38;17.90;;;10.47;;
8564;SDS011;4320;51.498;6.556;2022-12-07T07:32:04;17.77;;;10.23;;
8564;SDS011;4320;51.498;6.556;2022-12-07T07:34:30;17.13;;;9.70;;
8564;SDS011;4320;51.498;6.556;2022-12-07T07:36:55;12.53;;;9.40;;
8564;SDS011;4320;51.498;6.556;2022-12-07T07:39:21;15.83;;;11.03;;
8564;SDS011;4320;51.498;6.556;2022-12-07T07:41:46;19.87;;;9.97;;
8564;SDS011;4320;51.498;6.556;2022-12-07T07:44:12;14.83;;;8.87;;
8564;SDS011;4320;51.498;6.556;2022-12-07T07:46:38;15.53;;;9.63;;
8564;SDS011;4320;51.498;6.556;2022-12-07T07:49:03;15.40;;;9.10;;
8564;SDS011;4320;51.498;6.556;2022-12-07T07:51:29;22.83;;;10.00;;
8564;SDS011;4320;51.498;6.556;2022-12-07T07:53:55;16.47;;;9.23;;
8564;SDS011;4320;51.498;6.556;2022-12-07T07:56:20;14.47;;;8.90;;
8564;SDS011;4320;51.498;6.556;2022-12-07T07:58:46;16.43;;;9.60;;
8564;SDS011;4320;51.498;6.556;2022-12-07T08:01:11;18.40;;;10.73;;
8564;SDS011;4320;51.498;6.556;2022-12-07T08:03:38;16.40;;;9.10;;
8564;SDS011;4320;51.498;6.556;2022-12-07T08:06:04;14.23;;;8.77;;
8564;SDS011;4320;51.498;6.556;2022-12-07T08:08:31;12.10;;;8.53;;
8564;SDS011;4320;51.498;6.556;2022-12-07T08:10:57;13.37;;;8.60;;
8564;SDS011;4320;51.498;6.556;2022-12-07T08:13:26;14.40;;;8.43;;
8564;SDS011;4320;51.498;6.556;2022-12-07T08:15:52;16.00;;;8.87;;
8564;SDS011;4320;51.498;6.556;2022-12-07T08:18:17;12.93;;;8.80;;
8564;SDS011;4320;51.498;6.556;2022-12-07T08:20:43;15.13;;;9.37;;
8564;SDS011;4320;51.498;6.556;2022-12-07T08:23:09;21.33;;;10.67;;
8564;SDS011;4320;51.498;6.556;2022-12-07T08:25:35;11.03;;;8.80;;
8564;SDS011;4320;51.498;6.556;2022-12-07T08:28:01;13.87;;;8.90;;
8564;SDS011;4320;51.498;6.556;2022-12-07T08:30:28;13.97;;;8.60;;
8564;SDS011;4320;51.498;6.556;2022-12-07T08:32:54;11.80;;;8.63;;
8564;SDS011;4320;51.498;6.556;2022-12-07T08:35:20;16.17;;;8.93;;
8564;SDS011;4320;51.498;6.556;2022-12-07T08:37:46;12.67;;;8.50;;
8564;SDS011;4320;51.498;6.556;2022-12-07T08:40:12;13.10;;;8.60;;
8564;SDS011;4320;51.498;6.556;2022-12-07T08:42:43;16.17;;;9.77;;
8564;SDS011;4320;51.498;6.556;2022-12-07T08:45:10;16.00;;;8.90;;
8564;SDS011;4320;51.498;6.556;2022-12-07T08:47:38;18.40;;;9.43;;
8564;SDS011;4320;51.498;6.556;2022-12-07T08:50:08;16.00;;;8.80;;
8564;SDS011;4320;51.498;6.556;2022-12-07T08:52:36;14.90;;;8.93;;
8564;SDS011;4320;51.498;6.556;2022-12-07T08:55:02;16.63;;;9.57;;
8564;SDS011;4320;51.498;6.556;2022-12-07T08:57:29;11.33;;;8.07;;
8564;SDS011;4320;51.498;6.556;2022-12-07T08:59:55;13.30;;;8.73;;
8564;SDS011;4320;51.498;6.556;2022-12-07T09:02:22;13.70;;;8.40;;
8564;SDS011;4320;51.498;6.556;2022-12-07T09:04:48;14.03;;;9.07;;
8564;SDS011;4320;51.498;6.556;2022-12-07T09:07:13;14.20;;;9.20;;
8564;SDS011;4320;51.498;6.556;2022-12-07T09:09:39;15.07;;;9.03;;
8564;SDS011;4320;51.498;6.556;2022-12-07T09:12:04;16.27;;;9.03;;
8564;SDS011;4320;51.498;6.556;2022-12-07T09:14:30;13.67;;;8.37;;
8564;SDS011;4320;51.498;6.556;2022-12-07T09:17:04;14.77;;;9.00;;
8564;SDS011;4320;51.498;6.556;2022-12-07T09:19:33;18.20;;;8.87;;
8564;SDS011;4320;51.498;6.556;2022-12-07T09:21:59;17.10;;;8.77;;
8564;SDS011;4320;51.498;6.556;2022-12-07T09:24:25;15.83;;;9.23;;
8564;SDS011;4320;51.498;6.556;2022-12-07T09:26:50;12.93;;;8.23;;
8564;SDS011;4320;51.498;6.556;2022-12-07T09:29:16;10.27;;;7.80;;
8564;SDS011;4320;51.498;6.556;2022-12-07T09:31:41;13.00;;;7.83;;
8564;SDS011;4320;51.498;6.556;2022-12-07T09:34:07;11.37;;;7.80;;
8564;SDS011;4320;51.498;6.556;2022-12-07T09:36:33;15.13;;;7.73;;
8564;SDS011;4320;51.498;6.556;2022-12-07T09:38:58;10.47;;;7.63;;
8564;SDS011;4320;51.498;6.556;2022-12-07T09:41:25;12.80;;;8.40;;
8564;SDS011;4320;51.498;6.556;2022-12-07T09:43:53;12.83;;;7.80;;
8564;SDS011;4320;51.498;6.556;2022-12-07T09:46:25;12.83;;;8.03;;
8564;SDS011;4320;51.498;6.556;2022-12-07T09:48:51;16.60;;;7.50;;
8564;SDS011;4320;51.498;6.556;2022-12-07T09:51:18;12.67;;;6.83;;
8564;SDS011;4320;51.498;6.556;2022-12-07T09:53:45;17.07;;;7.87;;
8564;SDS011;4320;51.498;6.556;2022-12-07T09:56:15;12.97;;;7.53;;
8564;SDS011;4320;51.498;6.556;2022-12-07T09:58:42;10.57;;;7.07;;
8564;SDS011;4320;51.498;6.556;2022-12-07T10:03:39;9.60;;;5.80;;
8564;SDS011;4320;51.498;6.556;2022-12-07T10:06:07;7.60;;;5.53;;
8564;SDS011;4320;51.498;6.556;2022-12-07T10:08:35;12.40;;;5.95;;
8564;SDS011;4320;51.498;6.556;2022-12-07T10:11:01;7.47;;;5.35;;
8564;SDS011;4320;51.498;6.556;2022-12-07T10:16:02;7.97;;;5.15;;
8564;SDS011;4320;51.498;6.556;2022-12-07T10:23:34;15.98;;;5.25;;
8564;SDS011;4320;51.498;6.556;2022-12-07T10:26:26;8.93;;;5.03;;
8564;SDS011;4320;51.498;6.556;2022-12-07T10:29:02;9.30;;;4.93;;
8564;SDS011;4320;51.498;6.556;2022-12-07T10:31:42;7.95;;;4.05;;
8564;SDS011;4320;51.498;6.556;2022-12-07T10:34:23;5.30;;;3.42;;
8564;SDS011;4320;51.498;6.556;2022-12-07T10:36:51;12.35;;;4.80;;
8564;SDS011;4320;51.498;6.556;2022-12-07T10:39:19;7.00;;;4.80;;
8564;SDS011;4320;51.498;6.556;2022-12-07T10:41:53;9.90;;;4.65;;
8564;SDS011;4320;51.498;6.556;2022-12-07T10:44:25;9.90;;;3.67;;
8564;SDS011;4320;51.498;6.556;2022-12-07T10:46:54;5.88;;;3.72;;
8564;SDS011;4320;51.498;6.556;2022-12-07T11:21:18;11.15;;;4.60;;
8564;SDS011;4320;51.498;6.556;2022-12-07T11:24:06;9.35;;;4.65;;
8564;SDS011;4320;51.498;6.556;2022-12-07T11:35:11;11.65;;;4.70;;
8564;SDS011;4320;51.498;6.556;2022-12-07T11:37:41;9.15;;;4.70;;
8564;SDS011;4320;51.498;6.556;2022-12-07T11:40:20;8.70;;;3.90;;
8564;SDS011;4320;51.498;6.556;2022-12-07T11:43:04;6.82;;;4.65;;
8564;SDS011;4320;51.498;6.556;2022-12-07T11:45:31;7.80;;;4.60;;
8564;SDS011;4320;51.498;6.556;2022-12-07T11:50:48;6.43;;;4.25;;
8564;SDS011;4320;51.498;6.556;2022-12-07T11:53:20;8.70;;;4.80;;
8564;SDS011;4320;51.498;6.556;2022-12-07T12:06:34;8.57;;;4.47;;
8564;SDS011;4320;51.498;6.556;2022-12-07T12:17:11;7.00;;;3.70;;
8564;SDS011;4320;51.498;6.556;2022-12-07T12:20:06;8.15;;;3.88;;
8564;SDS011;4320;51.498;6.556;2022-12-07T12:26:03;4.35;;;3.63;;
8564;SDS011;4320;51.498;6.556;2022-12-07T12:28:39;6.07;;;3.22;;
8564;SDS011;4320;51.498;6.556;2022-12-07T12:31:15;7.07;;;4.35;;
8564;SDS011;4320;51.498;6.556;2022-12-07T12:33:56;10.10;;;4.63;;
8564;SDS011;4320;51.498;6.556;2022-12-07T12:47:00;5.15;;;3.35;;
8564;SDS011;4320;51.498;6.556;2022-12-07T12:49:37;8.85;;;4.00;;
8564;SDS011;4320;51.498;6.556;2022-12-07T12:55:01;7.75;;;3.67;;
8564;SDS011;4320;51.498;6.556;2022-12-07T12:57:33;10.82;;;3.60;;
8564;SDS011;4320;51.498;6.556;2022-12-07T13:00:01;9.52;;;3.45;;
8564;SDS011;4320;51.498;6.556;2022-12-07T13:05:20;6.82;;;2.90;;
8564;SDS011;4320;51.498;6.556;2022-12-07T13:07:55;9.48;;;3.33;;
8564;SDS011;4320;51.498;6.556;2022-12-07T13:10:42;3.70;;;3.05;;
8564;SDS011;4320;51.498;6.556;2022-12-07T13:15:47;9.02;;;3.45;;
8564;SDS011;4320;51.498;6.556;2022-12-07T13:23:36;10.02;;;3.05;;
8564;SDS011;4320;51.498;6.556;2022-12-07T13:26:16;4.15;;;2.67;;
8564;SDS011;4320;51.498;6.556;2022-12-07T13:28:52;5.93;;;3.10;;
8564;SDS011;4320;51.498;6.556;2022-12-07T13:31:45;4.28;;;2.45;;
8564;SDS011;4320;51.498;6.556;2022-12-07T13:37:48;6.03;;;3.28;;
8564;SDS011;4320;51.498;6.556;2022-12-07T13:39:58;6.72;;;2.97;;
8564;SDS011;4320;51.498;6.556;2022-12-07T13:44:51;10.70;;;3.60;;
8564;SDS011;4320;51.498;6.556;2022-12-07T13:47:19;4.13;;;2.30;;
8564;SDS011;4320;51.498;6.556;2022-12-07T13:50:21;7.43;;;3.20;;
8564;SDS011;4320;51.498;6.556;2022-12-07T13:52:49;8.63;;;3.97;;
8564;SDS011;4320;51.498;6.556;2022-12-07T13:55:16;7.75;;;4.72;;
8564;SDS011;4320;51.498;6.556;2022-12-07T13:57:42;11.77;;;6.90;;
8564;SDS011;4320;51.498;6.556;2022-12-07T14:00:29;8.00;;;4.65;;
8564;SDS011;4320;51.498;6.556;2022-12-07T14:02:59;8.15;;;3.50;;
8564;SDS011;4320;51.498;6.556;2022-12-07T14:05:27;4.30;;;3.17;;
8564;SDS011;4320;51.498;6.556;2022-12-07T14:10:26;7.68;;;3.58;;
8564;SDS011;4320;51.498;6.556;2022-12-07T14:12:57;7.82;;;3.00;;
8564;SDS011;4320;51.498;6.556;2022-12-07T14:15:25;6.07;;;3.40;;
8564;SDS011;4320;51.498;6.556;2022-12-07T14:17:54;3.65;;;2.78;;
8564;SDS011;4320;51.498;6.556;2022-12-07T14:20:31;9.10;;;4.60;;
8564;SDS011;4320;51.498;6.556;2022-12-07T14:22:58;13.48;;;5.40;;
8564;SDS011;4320;51.498;6.556;2022-12-07T14:25:27;13.60;;;6.25;;
8564;SDS011;4320;51.498;6.556;2022-12-07T14:27:57;12.87;;;4.87;;
8564;SDS011;4320;51.498;6.556;2022-12-07T14:30:25;14.05;;;5.03;;
8564;SDS011;4320;51.498;6.556;2022-12-07T14:32:54;14.55;;;5.97;;
8564;SDS011;4320;51.498;6.556;2022-12-07T14:35:22;15.73;;;6.25;;
8564;SDS011;4320;51.498;6.556;2022-12-07T14:37:48;12.23;;;6.37;;
8564;SDS011;4320;51.498;6.556;2022-12-07T14:40:19;11.70;;;6.87;;
8564;SDS011;4320;51.498;6.556;2022-12-07T14:42:47;12.20;;;6.03;;
8564;SDS011;4320;51.498;6.556;2022-12-07T14:45:34;12.93;;;4.07;;
8564;SDS011;4320;51.498;6.556;2022-12-07T14:48:00;5.00;;;3.33;;
8564;SDS011;4320;51.498;6.556;2022-12-07T14:50:25;3.90;;;2.77;;
8564;SDS011;4320;51.498;6.556;2022-12-07T14:52:52;7.70;;;2.70;;
8564;SDS011;4320;51.498;6.556;2022-12-07T14:55:25;5.40;;;2.97;;
8564;SDS011;4320;51.498;6.556;2022-12-07T14:57:53;8.83;;;2.87;;
8564;SDS011;4320;51.498;6.556;2022-12-07T15:00:19;7.03;;;3.47;;
8564;SDS011;4320;51.498;6.556;2022-12-07T15:02:46;8.25;;;3.90;;
8564;SDS011;4320;51.498;6.556;2022-12-07T15:05:13;5.70;;;3.30;;
8564;SDS011;4320;51.498;6.556;2022-12-07T15:07:39;5.43;;;3.43;;
8564;SDS011;4320;51.498;6.556;2022-12-07T15:10:05;7.53;;;3.87;;
8564;SDS011;4320;51.498;6.556;2022-12-07T15:12:37;11.13;;;4.17;;
8564;SDS011;4320;51.498;6.556;2022-12-07T15:15:03;8.93;;;4.07;;
8564;SDS011;4320;51.498;6.556;2022-12-07T15:17:29;7.60;;;3.90;;
8564;SDS011;4320;51.498;6.556;2022-12-07T15:19:55;8.80;;;3.60;;
8564;SDS011;4320;51.498;6.556;2022-12-07T15:22:20;11.53;;;4.40;;
8564;SDS011;4320;51.498;6.556;2022-12-07T15:24:46;11.07;;;5.03;;
8564;SDS011;4320;51.498;6.556;2022-12-07T15:27:12;10.10;;;4.00;;
8564;SDS011;4320;51.498;6.556;2022-12-07T15:29:37;11.23;;;4.80;;
8564;SDS011;4320;51.498;6.556;2022-12-07T15:32:03;9.93;;;4.40;;
8564;SDS011;4320;51.498;6.556;2022-12-07T15:34:29;7.03;;;3.80;;
8564;SDS011;4320;51.498;6.556;2022-12-07T15:36:56;6.97;;;3.97;;
8564;SDS011;4320;51.498;6.556;2022-12-07T15:39:22;7.30;;;3.30;;
8564;SDS011;4320;51.498;6.556;2022-12-07T15:41:47;9.47;;;3.83;;
8564;SDS011;4320;51.498;6.556;2022-12-07T15:44:13;10.23;;;3.90;;
8564;SDS011;4320;51.498;6.556;2022-12-07T15:46:58;7.77;;;4.53;;
8564;SDS011;4320;51.498;6.556;2022-12-07T15:49:25;10.67;;;6.10;;
8564;SDS011;4320;51.498;6.556;2022-12-07T15:51:51;8.90;;;4.75;;
8564;SDS011;4320;51.498;6.556;2022-12-07T15:54:21;12.23;;;5.65;;
8564;SDS011;4320;51.498;6.556;2022-12-07T15:56:46;6.43;;;3.63;;
8564;SDS011;4320;51.498;6.556;2022-12-07T15:59:12;7.63;;;3.57;;
8564;SDS011;4320;51.498;6.556;2022-12-07T16:01:38;11.32;;;3.95;;
8564;SDS011;4320;51.498;6.556;2022-12-07T16:04:04;7.17;;;2.87;;
8564;SDS011;4320;51.498;6.556;2022-12-07T16:06:30;4.90;;;2.80;;
8564;SDS011;4320;51.498;6.556;2022-12-07T16:08:55;7.27;;;3.13;;
8564;SDS011;4320;51.498;6.556;2022-12-07T16:11:21;5.40;;;3.50;;
8564;SDS011;4320;51.498;6.556;2022-12-07T16:13:47;6.20;;;2.87;;
8564;SDS011;4320;51.498;6.556;2022-12-07T16:16:14;7.87;;;3.67;;
8564;SDS011;4320;51.498;6.556;2022-12-07T16:18:41;6.33;;;3.57;;
8564;SDS011;4320;51.498;6.556;2022-12-07T16:21:08;7.80;;;4.20;;
8564;SDS011;4320;51.498;6.556;2022-12-07T16:23:33;16.07;;;4.40;;
8564;SDS011;4320;51.498;6.556;2022-12-07T16:28:39;7.90;;;5.20;;
8564;SDS011;4320;51.498;6.556;2022-12-07T16:31:06;6.13;;;4.57;;
8564;SDS011;4320;51.498;6.556;2022-12-07T16:33:35;7.37;;;3.83;;
8564;SDS011;4320;51.498;6.556;2022-12-07T16:36:01;8.47;;;3.97;;
8564;SDS011;4320;51.498;6.556;2022-12-07T16:38:27;6.23;;;3.43;;
8564;SDS011;4320;51.498;6.556;2022-12-07T16:40:53;5.90;;;3.00;;
8564;SDS011;4320;51.498;6.556;2022-12-07T16:43:19;5.77;;;2.93;;
8564;SDS011;4320;51.498;6.556;2022-12-07T16:45:45;5.93;;;3.47;;
8564;SDS011;4320;51.498;6.556;2022-12-07T16:48:12;6.90;;;3.60;;
8564;SDS011;4320;51.498;6.556;2022-12-07T16:50:39;3.97;;;3.20;;
8564;SDS011;4320;51.498;6.556;2022-12-07T16:53:06;7.90;;;3.70;;
8564;SDS011;4320;51.498;6.556;2022-12-07T16:55:34;10.87;;;3.83;;
8564;SDS011;4320;51.498;6.556;2022-12-07T16:58:01;6.23;;;4.20;;
8564;SDS011;4320;51.498;6.556;2022-12-07T17:00:27;5.10;;;3.35;;
8564;SDS011;4320;51.498;6.556;2022-12-07T17:02:53;5.00;;;2.80;;
8564;SDS011;4320;51.498;6.556;2022-12-07T17:05:20;5.10;;;2.80;;
8564;SDS011;4320;51.498;6.556;2022-12-07T17:07:46;10.03;;;2.23;;
8564;SDS011;4320;51.498;6.556;2022-12-07T17:10:11;4.03;;;2.33;;
8564;SDS011;4320;51.498;6.556;2022-12-07T17:12:37;3.70;;;2.23;;
8564;SDS011;4320;51.498;6.556;2022-12-07T17:15:03;2.77;;;2.10;;
8564;SDS011;4320;51.498;6.556;2022-12-07T17:17:51;2.43;;;1.87;;
8564;SDS011;4320;51.498;6.556;2022-12-07T17:20:19;6.27;;;2.40;;
8564;SDS011;4320;51.498;6.556;2022-12-07T17:22:45;2.60;;;2.10;;
8564;SDS011;4320;51.498;6.556;2022-12-07T17:25:11;6.50;;;2.33;;
8564;SDS011;4320;51.498;6.556;2022-12-07T17:27:37;4.67;;;2.43;;
8564;SDS011;4320;51.498;6.556;2022-12-07T17:30:04;4.50;;;2.50;;
8564;SDS011;4320;51.498;6.556;2022-12-07T17:32:30;4.80;;;2.67;;
8564;SDS011;4320;51.498;6.556;2022-12-07T17:34:56;4.37;;;2.63;;
8564;SDS011;4320;51.498;6.556;2022-12-07T17:37:22;4.20;;;2.80;;
8564;SDS011;4320;51.498;6.556;2022-12-07T17:39:47;3.60;;;2.80;;
8564;SDS011;4320;51.498;6.556;2022-12-07T17:42:13;8.27;;;2.73;;
8564;SDS011;4320;51.498;6.556;2022-12-07T17:44:58;4.97;;;2.97;;
8564;SDS011;4320;51.498;6.556;2022-12-07T17:47:23;4.97;;;3.23;;
8564;SDS011;4320;51.498;6.556;2022-12-07T17:49:49;4.67;;;3.27;;
8564;SDS011;4320;51.498;6.556;2022-12-07T17:52:15;5.83;;;3.67;;